Unalaska, AK (99685)

5:36 AM AKDT on July 14, 2014 (GMT -0800)
Cold Bay (PACD) Elev 102 ft | 55.22 °N, 162.73 °W | Change Station

Current weather conditions updated 13 minutes ago

Overcast
Overcast
54 °F
Feels Like 54 °F
N
18
Wind Variable Wind from SE
Gusts 29 mph

Today is forecast to be Much Cooler than yesterday. Chance of showers.

Today
High -- | Low -- °F
--% Chance of Precip.
Yesterday
High -- | Low -- °F
Precip. -- in
6:53 AM 11:30 PM
Waning Gibbous, 93% visible
Pressure 30.07 in
Visibility 10.0 miles
Clouds Mostly Cloudy 3000 ft
Overcast 3800 ft
Dew Point 49 °F
Humidity 83%
Rainfall 0.01 in
Snow Depth Not available.
UV 0 out of 12
Pollen Not available.
Air Quality Not available.
Flu Activity Sporadic
SPECI PACD 141323Z 13016G25KT 10SM BKN030 OVC038 12/09 A3007 RMK AO2 T01220094

More Conditions Fewer Conditions

Pressure 30.07 in
Visibility 10.0 miles
Clouds Mostly Cloudy 3000 ft
Overcast 3800 ft
Dew Point 49 °F
Humidity 83%
Rainfall 0.01 in
Snow Depth Not available.
UV 0 out of 12
Pollen Not available.
Air Quality Not available.
Flu Activity Sporadic
SPECI PACD 141323Z 13016G25KT 10SM BKN030 OVC038 12/09 A3007 RMK AO2 T01220094

More Conditions Fewer Conditions

10-Day Weather Forecast

Almanac

Astronomy

Jul. 14, 2014 Rise Set
Actual Time 6:53 AM AKDT 11:30 PM AKDT
Civil Twilight 6:03 AM AKDT 12:20 AM AKDT
Nautical Twilight 4:43 AM AKDT 1:39 AM AKDT
Astronomical Twilight Sun does not rise Sun does not rise
Moon No Moon Rise 10:26 AM AKDT
Length of Visible Light 18h 16m
Length of Day
16h 36m
Tomorrow will be 2m 28s shorter.
Waning Gibbous, 93% of the Moon is Illuminated
Today
Waning Gibbous
Jul 18
Last Quarter
Jul 26
New
Aug 3
First Quarter
Aug 10
Full

Today's Extremes

State Highs State Lows

Community

WunderPhotos

Upload Photos

1,733,651 photos uploaded!

Nearby

Snow Depth

Station Depth Elevation
Port Graham 0 in 300 ft
Mcneil Canyon 1 in 1320 ft
MF Bradley River 23 in 2300 ft
Nuka Glacier 2 in 1250 ft
Rocky Point 2 in 500 ft

Earthquake Activity

City Distance Mag. Time & Date
No recent earthquake activity has been reported nearby.
Minimum magnitude displayed is 2.5.

Coastal Water Temperatures

Place Temperature
No Stations Reporting

Nearby Weather Stations

There are no personal weather stations in this area.